KMEI/MEI METAR and TAF weather

Enter ICAO airport designator
Station Type Date Time Source
KMEI METAR 2020/07/12 19:58 UTC NOAA

KMEI 121958Z 26008KT 10SM VCTS CLR 30/25 A2982 RMK AO2 PK WND 27036/1916 LTG DSNT ALQDS RAB08E32 TSB15E41 SLP094 P0020 T03000250


Station Type Date Time Source
KMEI Decoded METAR 2020/07/12 19:58 UTC NOAA

MERIDIAN KEY FIELD, MS, United States (KMEI) 32-20N 088-45W 89M
Jul 12, 2020 - 03:58 PM EDT / 2020.07.12 1958 UTC
Wind: from the W (260 degrees) at 9 MPH (8 KT):0
Visibility: 10 mile(s):0
Sky conditions: clear
Weather: thunder in the vicinity; Lightning observed
Precipitation last hour: 0.20 inches
Temperature: 86.0 F (30.0 C)
Heat index: 96.8 F (36.0 C):1
Dew Point: 77.0 F (25.0 C)
Relative Humidity: 74%
Pressure (altimeter): 29.82 in. Hg (1009 hPa)
ob: KMEI 121958Z 26008KT 10SM VCTS CLR 30/25 A2982 RMK AO2 PK WND 27036/1916 LTG DSNT ALQDS RAB08E32 TSB15E41 SLP094 P0020 T03000250
cycle: 20

Station Type Date Time Source
KMEI TAF 2020/07/12 18:22 UTC NOAA

TAF KMEI 121720Z 1218/1318 20006KT P6SM FEW035
FM122000 25006KT P6SM VCTS SCT060CB
FM130100 26009KT P6SM VCSH BKN050
FM130300 23003KT P6SM FEW250

Example: see airport list